Time;durP1;ratioP1;P1;durP2;ratioP2;P2;SDS_P1;SDS_P2;PMS_P1;PMS_P2;Temp;Humidity;BMP_temperature;BMP_pressure;BME280_temperature;BME280_humidity;BME280_pressure;Samples;Min_cycle;Max_cycle;Signal;HPM_P1;HPM_P2
2023/06/08 00:01:45;;;;;;;;;21.50;21.50;;;;;18.26;64.50;100035.81;5096050;28;9682;-59
2023/06/08 00:04:12;;;;;;;;;27.50;25.00;;;;;18.18;64.61;100038.50;5096158;28;8827;-59
2023/06/08 00:06:44;;;;;;;;;20.00;19.50;;;;;18.09;64.94;100035.00;5096247;28;8829;-59
2023/06/08 00:09:12;;;;;;;;;20.75;20.50;;;;;18.01;64.98;100035.00;5096269;28;8818;-59
2023/06/08 00:11:40;;;;;;;;;19.50;19.25;;;;;17.95;64.99;100030.25;5095900;28;8849;-59
2023/06/08 00:14:08;;;;;;;;;16.00;14.40;;;;;17.88;65.26;100028.38;5096078;28;8822;-59
2023/06/08 00:16:37;;;;;;;;;27.25;23.25;;;;;17.82;65.45;100029.03;5098714;28;8810;-60
2023/06/08 00:19:04;;;;;;;;;25.25;23.75;;;;;17.77;65.68;100029.53;5099918;28;8825;-59
2023/06/08 00:21:33;;;;;;;;;24.25;22.50;;;;;17.74;65.51;100029.88;5098903;28;8834;-59
2023/06/08 00:24:01;;;;;;;;;26.50;23.00;;;;;17.69;65.22;100029.53;5099977;28;8798;-59
2023/06/08 00:26:28;;;;;;;;;19.50;19.50;;;;;17.63;65.82;100032.88;5099590;28;8825;-59
2023/06/08 00:28:56;;;;;;;;;27.00;25.75;;;;;17.58;65.87;100031.69;5099248;28;8925;-60
2023/06/08 00:31:24;;;;;;;;;20.25;19.50;;;;;17.52;65.59;100026.94;5099685;28;8870;-59
2023/06/08 00:33:52;;;;;;;;;22.50;21.00;;;;;17.45;65.87;100026.75;5099708;28;8950;-60
2023/06/08 00:36:20;;;;;;;;;17.25;16.25;;;;;17.39;66.13;100030.09;5099307;28;8824;-58
2023/06/08 00:38:48;;;;;;;;;26.00;22.00;;;;;17.33;66.11;100030.72;5099750;28;8826;-60
2023/06/08 00:41:15;;;;;;;;;24.00;21.00;;;;;17.28;66.05;100026.84;5099792;28;8814;-59
2023/06/08 00:43:43;;;;;;;;;21.25;20.00;;;;;17.24;66.25;100029.00;5099433;28;8817;-59
2023/06/08 00:46:12;;;;;;;;;23.75;21.50;;;;;17.20;66.73;100027.66;5099622;28;8842;-59
2023/06/08 00:48:40;;;;;;;;;22.50;17.00;;;;;17.15;66.90;100024.59;5099150;28;8949;-59
2023/06/08 00:51:08;;;;;;;;;17.50;17.00;;;;;17.10;66.57;100026.09;5099116;28;9476;-58
2023/06/08 00:53:36;;;;;;;;;18.25;16.50;;;;;17.03;66.56;100025.91;5099368;28;8838;-59
2023/06/08 00:56:04;;;;;;;;;22.75;20.00;;;;;16.96;67.12;100019.47;5099614;28;8960;-59
2023/06/08 00:58:33;;;;;;;;;24.00;22.00;;;;;16.91;67.20;100027.19;5099282;28;8818;-59
2023/06/08 01:01:03;;;;;;;;;18.00;16.75;;;;;16.85;67.06;100025.13;5099354;28;8802;-59
2023/06/08 01:03:35;;;;;;;;;24.25;22.00;;;;;16.78;66.94;100029.44;5099086;28;8826;-59
2023/06/08 01:06:08;;;;;;;;;20.25;19.75;;;;;16.72;67.09;100024.69;5099277;28;8833;-59
2023/06/08 01:08:37;;;;;;;;;19.75;18.50;;;;;16.66;67.97;100029.88;5098911;28;8849;-59
2023/06/08 01:11:05;;;;;;;;;21.50;19.25;;;;;16.60;67.37;100033.19;5099262;28;8872;-58
2023/06/08 01:13:35;;;;;;;;;19.50;16.00;;;;;16.55;67.31;100022.09;5098797;28;8837;-59
2023/06/08 01:16:03;;;;;;;;;14.00;13.25;;;;;16.50;67.67;100024.41;5099175;28;8819;-58
2023/06/08 01:18:32;;;;;;;;;22.50;20.50;;;;;16.46;67.24;100023.88;5098553;28;8817;-59
2023/06/08 01:21:06;;;;;;;;;20.25;15.25;;;;;16.42;68.22;100022.47;5099220;28;8891;-59
2023/06/08 01:23:37;;;;;;;;;20.00;19.50;;;;;16.38;67.86;100016.75;5099015;28;9500;-58
2023/06/08 01:26:05;;;;;;;;;18.00;17.50;;;;;16.33;68.25;100018.00;5098273;28;8850;-59
2023/06/08 01:28:34;;;;;;;;;20.25;18.25;;;;;16.29;68.26;100010.41;5098719;28;8852;-59
2023/06/08 01:31:02;;;;;;;;;18.50;17.50;;;;;16.25;67.83;100020.63;5098577;28;8844;-59
2023/06/08 01:33:30;;;;;;;;;22.50;21.00;;;;;16.23;68.04;100020.97;5098490;28;8842;-59
2023/06/08 01:35:58;;;;;;;;;15.75;15.25;;;;;16.18;68.45;100014.19;5098650;28;8914;-59
2023/06/08 01:38:26;;;;;;;;;20.50;19.50;;;;;16.16;68.43;100011.84;5098468;28;8833;-59
2023/06/08 01:40:53;;;;;;;;;18.75;18.00;;;;;16.13;68.51;100006.75;5098633;28;9496;-58
2023/06/08 01:43:21;;;;;;;;;14.50;14.00;;;;;16.12;68.44;100008.63;5098976;28;8876;-58
2023/06/08 01:45:49;;;;;;;;;19.75;18.50;;;;;16.09;68.48;100005.38;5098487;28;8849;-59
2023/06/08 01:48:17;;;;;;;;;14.00;12.50;;;;;16.07;68.54;100010.91;5097981;28;8956;-59
2023/06/08 01:50:45;;;;;;;;;19.50;19.25;;;;;16.04;68.32;100008.53;5098079;28;8810;-59
2023/06/08 01:53:12;;;;;;;;;19.50;15.25;;;;;16.03;68.35;100008.69;5097470;28;8828;-59
2023/06/08 01:55:41;;;;;;;;;21.00;19.00;;;;;16.01;68.23;100011.53;5098072;28;8837;-56
2023/06/08 01:58:08;;;;;;;;;19.50;18.00;;;;;15.99;68.44;100005.47;5098109;28;8846;-59
2023/06/08 02:00:37;;;;;;;;;15.50;15.25;;;;;15.98;68.38;100016.34;5098156;28;9845;-58
2023/06/08 02:03:04;;;;;;;;;18.75;15.25;;;;;15.96;68.62;100003.09;5097980;28;8869;-59
2023/06/08 02:05:32;;;;;;;;;18.00;16.75;;;;;15.94;68.54;99998.88;5098103;28;8830;-58
2023/06/08 02:08:00;;;;;;;;;18.25;17.00;;;;;15.92;68.66;99998.19;5097858;28;8840;-58
2023/06/08 02:10:28;;;;;;;;;18.75;17.50;;;;;15.89;68.55;99991.28;5097420;28;8822;-58
2023/06/08 02:12:56;;;;;;;;;19.25;14.50;;;;;15.85;68.23;99995.25;5097512;28;8822;-58
2023/06/08 02:15:27;;;;;;;;;18.00;18.00;;;;;15.83;68.36;99989.22;5098349;28;8880;-59
2023/06/08 02:17:59;;;;;;;;;18.25;16.50;;;;;15.81;68.52;99993.03;5097798;28;8965;-56
2023/06/08 02:20:26;;;;;;;;;18.50;18.00;;;;;15.75;68.46;99988.28;5097759;28;8838;-59
2023/06/08 02:22:54;;;;;;;;;16.25;15.25;;;;;15.71;69.04;99987.75;5097883;28;8810;-58
2023/06/08 02:25:22;;;;;;;;;18.75;18.00;;;;;15.66;68.52;99990.06;5097712;28;8841;-59
2023/06/08 02:27:50;;;;;;;;;16.50;15.00;;;;;15.63;68.64;99992.22;5097737;28;8810;-57
2023/06/08 02:30:17;;;;;;;;;13.00;13.00;;;;;15.59;68.99;99988.13;5097688;28;8834;-59
2023/06/08 02:32:45;;;;;;;;;19.75;18.75;;;;;15.55;69.26;99989.44;5097186;28;8878;-58
2023/06/08 02:35:14;;;;;;;;;18.50;16.50;;;;;15.52;69.21;99990.59;5097559;28;8834;-58
2023/06/08 02:37:43;;;;;;;;;15.25;15.00;;;;;15.49;69.04;99987.38;5096609;28;8826;-58
2023/06/08 02:40:12;;;;;;;;;23.50;17.50;;;;;15.46;68.87;99993.03;5096816;28;8806;-59
2023/06/08 02:42:39;;;;;;;;;19.00;18.25;;;;;15.44;69.29;99989.66;5097451;28;8813;-59
2023/06/08 02:45:07;;;;;;;;;15.25;14.50;;;;;15.42;69.12;99997.00;5097638;28;8830;-56
2023/06/08 02:47:35;;;;;;;;;18.00;16.00;;;;;15.41;69.71;99998.00;5097153;28;8829;-59
2023/06/08 02:50:03;;;;;;;;;13.00;13.00;;;;;15.39;69.15;99986.59;5097068;28;8814;-59
2023/06/08 02:52:31;;;;;;;;;15.25;12.25;;;;;15.36;69.28;99982.38;5097138;28;8864;-59
2023/06/08 02:54:58;;;;;;;;;17.50;15.25;;;;;15.35;69.13;99985.19;5097398;28;8830;-59
2023/06/08 02:57:26;;;;;;;;;15.00;14.00;;;;;15.32;69.24;99983.66;5097362;28;8833;-59
2023/06/08 02:59:54;;;;;;;;;17.00;12.25;;;;;15.29;69.52;99985.75;5097041;28;8818;-57
2023/06/08 03:02:22;;;;;;;;;16.00;15.25;;;;;15.25;69.47;99981.69;5096754;28;8868;-57
2023/06/08 03:04:52;;;;;;;;;20.75;19.00;;;;;15.22;69.80;99990.03;5096695;28;8822;-56
2023/06/08 03:07:19;;;;;;;;;18.25;15.50;;;;;15.18;70.11;99985.97;5096613;28;8818;-59
2023/06/08 03:09:47;;;;;;;;;19.00;18.00;;;;;15.14;69.95;99982.75;5096748;28;8852;-57
2023/06/08 03:12:15;;;;;;;;;18.50;17.50;;;;;15.12;70.08;99982.06;5096135;28;8822;-59
2023/06/08 03:14:43;;;;;;;;;17.50;15.25;;;;;15.09;69.68;99981.53;5096791;28;8856;-58
2023/06/08 03:17:10;;;;;;;;;17.00;15.00;;;;;15.07;69.28;99980.78;5096737;28;8828;-59
2023/06/08 03:19:38;;;;;;;;;18.00;16.00;;;;;15.03;69.66;99974.06;5097086;28;9479;-58
2023/06/08 03:22:07;;;;;;;;;14.50;13.25;;;;;15.01;69.20;99976.06;5096650;28;8943;-59
2023/06/08 03:24:34;;;;;;;;;12.00;10.00;;;;;14.98;69.88;99976.34;5096584;28;8864;-56
2023/06/08 03:27:02;;;;;;;;;12.50;12.25;;;;;14.98;69.77;99979.03;5096838;28;8844;-58
2023/06/08 03:29:30;;;;;;;;;14.50;13.75;;;;;14.97;69.61;99974.66;5096595;28;8818;-57
2023/06/08 03:31:57;;;;;;;;;17.75;16.00;;;;;15.00;69.98;99979.69;5096066;28;8826;-58
2023/06/08 03:34:26;;;;;;;;;15.75;15.00;;;;;15.01;69.20;99976.06;5095739;28;8838;-59
2023/06/08 03:36:53;;;;;;;;;17.25;15.75;;;;;15.04;69.86;99978.44;5096247;28;8818;-59
2023/06/08 03:39:21;;;;;;;;;10.50;10.00;;;;;15.03;69.56;99982.94;5095871;28;8826;-59
2023/06/08 03:41:49;;;;;;;;;16.50;15.50;;;;;15.02;69.94;99986.63;5096363;28;8833;-58
2023/06/08 03:44:17;;;;;;;;;12.50;12.50;;;;;15.02;69.82;99985.78;5096483;28;8850;-59
2023/06/08 03:46:44;;;;;;;;;12.25;10.50;;;;;15.03;69.73;99982.09;5096040;28;8839;-57
2023/06/08 03:49:12;;;;;;;;;14.75;14.25;;;;;15.04;69.67;99990.00;5096258;28;8822;-59
2023/06/08 03:51:40;;;;;;;;;9.75;9.50;;;;;15.07;69.76;99991.53;5096449;28;8814;-59
2023/06/08 03:54:08;;;;;;;;;17.00;15.25;;;;;15.10;69.31;99991.25;5096040;28;8845;-59
2023/06/08 03:56:35;;;;;;;;;9.00;9.00;;;;;15.14;69.18;99984.56;5096003;28;8837;-59
2023/06/08 03:59:04;;;;;;;;;14.25;11.25;;;;;15.18;69.52;99983.28;5096085;28;8838;-59
2023/06/08 04:01:32;;;;;;;;;15.00;13.00;;;;;15.22;68.54;99984.66;5095922;28;8841;-59
2023/06/08 04:04:00;;;;;;;;;18.50;18.25;;;;;15.26;68.83;99980.69;5096126;28;8833;-59
2023/06/08 04:06:33;;;;;;;;;13.25;11.75;;;;;15.29;69.15;99983.06;5095422;28;8829;-57
2023/06/08 04:09:01;;;;;;;;;17.50;14.00;;;;;15.34;68.82;99986.19;5095101;28;8814;-59
2023/06/08 04:11:29;;;;;;;;;12.25;11.75;;;;;15.36;68.65;99978.81;5095749;28;8834;-59
2023/06/08 04:13:57;;;;;;;;;12.00;11.00;;;;;15.38;68.50;99982.19;5095445;28;9652;-59
2023/06/08 04:16:25;;;;;;;;;13.00;12.00;;;;;15.40;68.99;99977.53;5094386;28;8821;-57
2023/06/08 04:18:53;;;;;;;;;11.00;9.50;;;;;15.43;68.39;99986.13;5093617;28;8818;-59
2023/06/08 04:21:25;;;;;;;;;12.00;10.00;;;;;15.45;68.42;99976.09;5094617;28;8848;-59
2023/06/08 04:23:52;;;;;;;;;12.75;11.00;;;;;15.49;68.43;99971.25;5094853;28;8883;-57
2023/06/08 04:26:20;;;;;;;;;15.00;12.75;;;;;15.53;68.29;99964.56;5095217;28;8848;-57
2023/06/08 04:28:49;;;;;;;;;16.00;14.00;;;;;15.57;68.08;99957.91;5094893;28;8833;-58
2023/06/08 04:31:17;;;;;;;;;19.75;17.00;;;;;15.64;68.21;99969.72;5095482;28;8849;-58
2023/06/08 04:33:44;;;;;;;;;11.50;11.50;;;;;15.73;68.35;99968.81;5095595;28;8872;-57
2023/06/08 04:36:12;;;;;;;;;13.50;13.00;;;;;15.88;67.75;99964.56;5095596;28;8853;-58
2023/06/08 04:38:41;;;;;;;;;11.50;11.25;;;;;16.03;67.18;99957.66;5095670;28;8825;-59
2023/06/08 04:41:11;;;;;;;;;9.50;8.75;;;;;16.20;66.74;99961.13;5094132;28;8834;-59
2023/06/08 04:43:39;;;;;;;;;13.00;12.75;;;;;16.38;67.09;99961.13;5095914;28;8814;-57
2023/06/08 04:46:07;;;;;;;;;14.00;13.00;;;;;16.54;66.50;99964.75;5095448;28;8818;-57
2023/06/08 04:48:37;;;;;;;;;20.25;17.00;;;;;16.70;66.02;99967.53;5095501;28;8822;-56
2023/06/08 04:51:09;;;;;;;;;11.00;10.75;;;;;16.85;65.77;99973.19;5095035;28;8806;-58
2023/06/08 04:53:37;;;;;;;;;15.75;15.00;;;;;16.99;65.60;99978.78;5095669;28;8861;-59
2023/06/08 04:56:05;;;;;;;;;18.75;16.00;;;;;17.14;65.48;99970.94;5095495;28;8833;-59
2023/06/08 04:58:33;;;;;;;;;9.25;8.50;;;;;17.27;64.89;99969.47;5095627;28;8818;-58
2023/06/08 05:01:00;;;;;;;;;15.00;12.00;;;;;17.39;64.55;99970.88;5095517;28;8833;-59
2023/06/08 05:03:28;;;;;;;;;15.00;14.00;;;;;17.51;64.46;99966.88;5098749;28;8849;-57
2023/06/08 05:05:56;;;;;;;;;11.75;10.75;;;;;17.63;64.13;99964.69;5099492;28;8814;-57
2023/06/08 05:08:24;;;;;;;;;20.50;17.00;;;;;17.69;64.10;99961.34;5099572;28;8845;-59
2023/06/08 05:10:52;;;;;;;;;14.60;13.00;;;;;17.72;64.27;99961.00;5098480;28;8817;-59
2023/06/08 05:13:20;;;;;;;;;16.00;14.20;;;;;17.75;63.89;99968.78;5098867;28;8842;-57
2023/06/08 05:15:47;;;;;;;;;17.00;15.60;;;;;17.76;64.61;99976.66;5098638;28;8877;-59
2023/06/08 05:18:16;;;;;;;;;16.40;16.20;;;;;17.77;64.41;99972.97;5099152;28;8944;-57
2023/06/08 05:20:43;;;;;;;;;14.60;12.60;;;;;17.81;64.50;99965.38;5098844;28;8817;-58
2023/06/08 05:23:11;;;;;;;;;12.60;12.60;;;;;17.83;64.29;99966.91;5098736;28;8832;-58
2023/06/08 05:25:39;;;;;;;;;16.80;16.00;;;;;17.86;64.37;99961.19;5098977;28;8850;-57
2023/06/08 05:28:06;;;;;;;;;16.20;14.00;;;;;17.89;64.48;99960.84;5098682;28;8850;-57
2023/06/08 05:30:34;;;;;;;;;16.40;15.60;;;;;17.93;64.32;99966.75;5098933;28;8833;-59
2023/06/08 05:33:02;;;;;;;;;18.00;16.00;;;;;17.97;64.46;99960.00;5097944;28;8826;-59
2023/06/08 05:35:29;;;;;;;;;18.00;15.25;;;;;18.01;64.23;99964.91;5098283;28;8853;-58
2023/06/08 05:37:57;;;;;;;;;13.25;10.00;;;;;18.07;64.34;99956.13;5098911;28;8859;-57
2023/06/08 05:40:25;;;;;;;;;21.25;19.50;;;;;18.12;64.36;99955.63;5097935;28;8815;-58
2023/06/08 05:42:53;;;;;;;;;15.20;15.00;;;;;18.20;64.28;99956.47;5099222;28;8832;-57
2023/06/08 05:45:21;;;;;;;;;18.00;16.00;;;;;18.26;64.06;99949.53;5098424;28;8840;-59
2023/06/08 05:47:48;;;;;;;;;17.50;15.50;;;;;18.30;63.83;99945.53;5098637;28;8856;-57
2023/06/08 05:50:16;;;;;;;;;15.20;15.20;;;;;18.36;63.96;99948.38;5098281;28;8898;-57
2023/06/08 05:52:44;;;;;;;;;18.80;18.20;;;;;18.44;63.80;99948.38;5098284;28;8845;-58
2023/06/08 05:55:13;;;;;;;;;13.00;13.00;;;;;18.51;64.00;99952.06;5097934;28;8956;-59
2023/06/08 05:57:40;;;;;;;;;17.60;15.60;;;;;18.55;63.49;99956.13;5097995;28;8890;-57
2023/06/08 06:00:10;;;;;;;;;15.40;15.20;;;;;18.56;64.13;99948.84;5097969;28;8837;-58
2023/06/08 06:02:38;;;;;;;;;16.80;13.60;;;;;18.55;63.66;99956.13;5097941;28;8830;-58
2023/06/08 06:05:07;;;;;;;;;16.40;16.40;;;;;18.58;63.71;99961.16;5097996;28;8822;-56
2023/06/08 06:07:39;;;;;;;;;14.80;13.20;;;;;18.62;63.72;99951.72;5098198;28;8965;-58
2023/06/08 06:10:07;;;;;;;;;17.80;16.80;;;;;18.71;63.58;99961.47;5097634;28;8836;-58
2023/06/08 06:12:35;;;;;;;;;21.00;18.20;;;;;18.77;63.36;99963.47;5098145;28;8825;-59
2023/06/08 06:15:03;;;;;;;;;18.00;15.40;;;;;18.84;63.73;99961.78;5097170;28;8822;-59
2023/06/08 06:17:31;;;;;;;;;16.00;15.20;;;;;18.83;63.35;99962.75;5097876;28;8861;-56
2023/06/08 06:19:59;;;;;;;;;15.00;15.00;;;;;18.82;63.70;99957.56;5097312;28;8833;-59
2023/06/08 06:22:27;;;;;;;;;20.00;15.20;;;;;18.80;63.80;99964.97;5097243;28;9020;-58
2023/06/08 06:24:54;;;;;;;;;15.60;14.80;;;;;18.79;63.99;99963.28;5097354;28;8863;-58
2023/06/08 06:27:22;;;;;;;;;17.40;13.80;;;;;18.85;64.11;99965.28;5097175;28;8828;-59
2023/06/08 06:29:50;;;;;;;;;12.40;11.20;;;;;18.93;63.92;99959.84;5096305;28;8830;-59
2023/06/08 06:32:18;;;;;;;;;20.80;18.60;;;;;19.04;63.47;99956.78;5097161;28;9733;-59
2023/06/08 06:34:46;;;;;;;;;15.20;13.40;;;;;19.16;63.24;99961.63;5097118;28;8841;-56
2023/06/08 06:37:14;;;;;;;;;19.00;17.80;;;;;19.26;62.88;99956.88;5093726;28;8915;-59
2023/06/08 06:39:42;;;;;;;;;16.80;16.00;;;;;19.34;62.71;99962.22;5097315;28;8830;-59
2023/06/08 06:42:10;;;;;;;;;16.00;15.60;;;;;19.41;63.39;99955.09;5097268;28;8834;-58
2023/06/08 06:44:38;;;;;;;;;22.00;19.60;;;;;19.39;63.23;99956.28;5096602;28;9579;-59
2023/06/08 06:47:05;;;;;;;;;17.20;16.40;;;;;19.37;63.28;99969.16;5096203;28;8794;-57
2023/06/08 06:49:33;;;;;;;;;21.60;18.00;;;;;19.39;63.36;99967.94;5096789;28;8847;-57
2023/06/08 06:52:01;;;;;;;;;16.80;16.00;;;;;19.50;63.50;99970.25;5096893;28;8927;-57
2023/06/08 06:54:28;;;;;;;;;13.40;13.20;;;;;19.69;62.86;99972.50;5096146;28;8860;-58
2023/06/08 06:56:57;;;;;;;;;11.40;10.60;;;;;19.87;62.17;99972.22;5096939;28;8830;-58
2023/06/08 06:59:26;;;;;;;;;13.80;13.80;;;;;20.10;61.57;99968.47;5096490;28;8872;-59
2023/06/08 07:01:53;;;;;;;;;20.20;18.00;;;;;20.35;61.38;99972.69;5096271;28;8936;-59
2023/06/08 07:04:22;;;;;;;;;14.40;13.00;;;;;20.53;60.70;99972.31;5097003;28;8841;-59
2023/06/08 07:06:53;;;;;;;;;13.60;13.60;;;;;20.58;60.96;99970.75;5096047;28;8802;-59
2023/06/08 07:09:21;;;;;;;;;16.60;16.60;;;;;20.50;60.86;99969.97;5096200;28;9702;-59
2023/06/08 07:11:50;;;;;;;;;16.40;16.40;;;;;20.45;61.14;99970.53;5096231;28;8832;-59
2023/06/08 07:14:38;;;;;;;;;18.20;17.00;;;;;20.38;61.23;99969.59;5096248;28;8873;-57
2023/06/08 07:17:06;;;;;;;;;16.20;14.40;;;;;20.45;61.57;99969.69;5095777;28;8818;-59
2023/06/08 07:19:35;;;;;;;;;10.40;10.40;;;;;20.51;61.25;99967.09;5096842;28;8840;-57
2023/06/08 07:22:03;;;;;;;;;20.80;17.80;;;;;20.58;61.48;99967.19;5095768;28;9445;-59
2023/06/08 07:24:51;;;;;;;;;16.60;14.80;;;;;20.64;61.11;99975.41;5095177;28;9502;-59
2023/06/08 07:27:38;;;;;;;;;16.20;14.20;;;;;20.71;61.14;99964.69;5095442;28;8866;-58
2023/06/08 07:30:07;;;;;;;;;14.40;13.00;;;;;20.74;61.40;99974.09;5095596;28;8817;-59
2023/06/08 07:32:35;;;;;;;;;15.40;14.60;;;;;20.78;60.71;99964.59;5095234;28;8818;-59
2023/06/08 07:35:04;;;;;;;;;17.20;14.60;;;;;20.81;60.99;99966.09;5095319;28;8850;-59
2023/06/08 07:37:32;;;;;;;;;13.60;13.20;;;;;20.88;61.40;99968.94;5095797;28;8826;-60
2023/06/08 07:40:00;;;;;;;;;16.40;15.60;;;;;20.93;60.72;99961.91;5095320;28;8822;-60
2023/06/08 07:42:30;;;;;;;;;17.20;16.20;;;;;20.99;60.86;99956.59;5095481;28;9601;-59
2023/06/08 07:44:58;;;;;;;;;23.80;20.80;;;;;21.09;60.99;99961.72;5095710;28;8861;-57
2023/06/08 07:47:26;;;;;;;;;22.40;19.80;;;;;21.18;60.65;99968.72;5095618;28;8818;-59
2023/06/08 07:49:55;;;;;;;;;18.80;16.00;;;;;21.22;60.24;99964.59;5094981;28;8845;-59
2023/06/08 07:52:23;;;;;;;;;18.60;16.20;;;;;21.28;60.53;99967.41;5095337;28;9733;-60
2023/06/08 07:54:51;;;;;;;;;18.00;15.00;;;;;21.39;60.20;99968.75;5094846;28;8818;-59
2023/06/08 07:57:19;;;;;;;;;18.80;16.60;;;;;21.47;60.01;99961.38;5095357;28;8908;-60
2023/06/08 07:59:47;;;;;;;;;18.00;16.60;;;;;21.53;60.22;99957.91;5095465;28;8830;-57
2023/06/08 08:02:15;;;;;;;;;17.20;15.20;;;;;21.62;60.17;99964.88;5093758;28;8834;-57
2023/06/08 08:04:43;;;;;;;;;18.80;18.00;;;;;21.66;60.14;99954.53;5095310;28;8818;-59
2023/06/08 08:07:12;;;;;;;;;16.00;14.80;;;;;21.74;59.94;99954.41;5095507;28;8830;-57
2023/06/08 08:09:41;;;;;;;;;18.80;15.00;;;;;21.81;59.68;99958.03;5083294;28;8849;-59
2023/06/08 08:12:09;;;;;;;;;15.80;15.20;;;;;21.88;59.48;99958.94;5094514;28;8826;-60
2023/06/08 08:14:37;;;;;;;;;19.00;16.20;;;;;21.98;59.76;99944.00;5095373;28;8918;-60
2023/06/08 08:17:05;;;;;;;;;15.60;14.20;;;;;22.06;59.50;99945.75;5095337;28;8830;-60
2023/06/08 08:19:34;;;;;;;;;18.20;15.60;;;;;22.15;59.45;99940.00;5095012;28;8810;-60
2023/06/08 08:22:02;;;;;;;;;14.60;12.20;;;;;22.24;58.85;99943.41;5094632;28;8940;-60
2023/06/08 08:24:30;;;;;;;;;18.20;16.00;;;;;22.34;59.17;99943.91;5094800;28;8822;-60
2023/06/08 08:26:58;;;;;;;;;20.60;19.20;;;;;22.43;58.99;99934.59;5094991;28;8837;-60
2023/06/08 08:29:26;;;;;;;;;15.00;13.60;;;;;22.50;58.64;99927.34;5094515;28;8842;-60
2023/06/08 08:31:55;;;;;;;;;15.40;13.80;;;;;22.60;58.46;99934.09;5095166;28;8948;-60
2023/06/08 08:34:22;;;;;;;;;19.40;17.20;;;;;22.71;58.44;99930.84;5095874;28;9483;-60
2023/06/08 08:36:50;;;;;;;;;19.60;19.20;;;;;22.82;58.67;99927.56;5097380;28;8918;-57
2023/06/08 08:39:18;;;;;;;;;20.40;17.80;;;;;22.92;58.44;99929.91;5099081;28;8844;-58
2023/06/08 08:41:46;;;;;;;;;17.20;14.80;;;;;22.98;57.98;99927.22;5098708;28;8834;-58
2023/06/08 08:44:15;;;;;;;;;20.40;19.00;;;;;23.06;58.24;99931.66;5099688;28;8822;-59
2023/06/08 08:46:44;;;;;;;;;15.80;15.40;;;;;23.17;57.40;99922.94;5099367;28;8802;-60
2023/06/08 08:49:18;;;;;;;;;21.80;20.20;;;;;23.28;57.90;99914.22;5099135;28;8838;-60
2023/06/08 08:51:46;;;;;;;;;18.20;17.80;;;;;23.42;57.41;99918.66;5099345;28;8845;-60
2023/06/08 08:54:15;;;;;;;;;22.00;20.00;;;;;23.48;57.10;99918.69;5099396;28;8849;-60
2023/06/08 08:56:43;;;;;;;;;19.60;17.60;;;;;23.56;57.65;99923.06;5099308;28;9516;-59
2023/06/08 08:59:11;;;;;;;;;20.40;18.20;;;;;23.67;57.02;99923.31;5098286;28;9545;-59
2023/06/08 09:01:40;;;;;;;;;19.20;18.20;;;;;23.73;56.77;99921.63;5078309;28;8840;-57
2023/06/08 09:04:08;;;;;;;;;19.20;17.80;;;;;23.81;56.92;99916.03;5078367;28;8849;-60
2023/06/08 09:06:36;;;;;;;;;23.80;22.40;;;;;23.94;57.06;99914.19;5078247;28;8905;-60
2023/06/08 09:09:04;;;;;;;;;25.40;21.80;;;;;24.05;56.77;99915.47;5078318;28;8824;-60
2023/06/08 09:11:34;;;;;;;;;21.20;18.40;;;;;24.11;56.66;99917.34;5089472;28;8867;-59
2023/06/08 09:14:03;;;;;;;;;16.40;16.20;;;;;24.20;56.49;99918.81;5098318;28;8826;-58
2023/06/08 09:16:31;;;;;;;;;28.00;22.20;;;;;24.29;56.40;99918.41;5097353;28;8826;-58
2023/06/08 09:19:00;;;;;;;;;18.60;18.00;;;;;24.38;56.28;99922.56;5097483;28;8830;-60
2023/06/08 09:21:28;;;;;;;;;18.80;17.80;;;;;24.47;55.92;99920.44;5097757;28;8964;-59
2023/06/08 09:27:06;;;;;;;;;14.40;14.00;;;;;24.75;56.01;99915.63;5098086;28;8775;-59
2023/06/08 09:29:36;;;;;;;;;20.20;19.40;;;;;24.83;55.37;99913.53;5097392;28;8802;-58
2023/06/08 09:32:05;;;;;;;;;19.80;19.60;;;;;24.95;55.17;99914.50;5097267;28;8845;-60
2023/06/08 09:34:34;;;;;;;;;20.40;19.00;;;;;25.08;55.47;99905.44;5098324;28;9522;-60
2023/06/08 09:37:02;;;;;;;;;19.80;18.80;;;;;25.20;55.22;99906.47;5098217;28;8833;-60
2023/06/08 09:39:30;;;;;;;;;20.00;17.40;;;;;25.31;54.92;99906.66;5097825;28;8830;-59
2023/06/08 09:41:59;;;;;;;;;16.60;16.20;;;;;25.39;54.67;99897.38;5097666;28;8826;-59
2023/06/08 09:44:27;;;;;;;;;24.00;21.00;;;;;25.48;54.26;99904.25;5097516;28;8855;-60
2023/06/08 09:46:55;;;;;;;;;21.80;20.60;;;;;25.65;54.36;99896.16;5096315;28;8849;-60
2023/06/08 09:49:26;;;;;;;;;15.00;12.80;;;;;25.79;54.21;99884.09;5095841;28;8817;-59
2023/06/08 09:51:54;;;;;;;;;15.40;11.60;;;;;25.87;54.07;99882.97;5097602;28;8817;-60
2023/06/08 09:54:29;;;;;;;;;18.80;18.40;;;;;25.97;54.03;99876.00;5097376;28;8834;-58
2023/06/08 09:56:58;;;;;;;;;20.60;18.00;;;;;26.14;53.57;99877.16;5097205;28;8834;-60
2023/06/08 09:59:26;;;;;;;;;21.80;20.00;;;;;26.41;53.48;99875.81;5097125;28;8834;-59
2023/06/08 10:01:54;;;;;;;;;22.80;21.00;;;;;26.67;52.51;99872.88;5096195;28;9565;-59
2023/06/08 10:04:22;;;;;;;;;26.80;24.60;;;;;26.94;52.21;99874.22;5096563;28;8830;-59
2023/06/08 10:06:51;;;;;;;;;22.20;20.20;;;;;27.21;51.69;99877.50;5096896;28;8842;-58
2023/06/08 10:09:19;;;;;;;;;21.80;20.40;;;;;27.48;51.67;99881.56;5097158;28;8822;-58
2023/06/08 10:11:47;;;;;;;;;20.00;19.80;;;;;27.76;50.56;99877.16;5096597;28;9048;-60
2023/06/08 10:14:15;;;;;;;;;17.60;16.60;;;;;28.00;50.55;99878.06;5096326;28;8834;-59
2023/06/08 10:16:43;;;;;;;;;15.40;14.80;;;;;28.24;50.17;99875.09;5095848;28;8854;-58
2023/06/08 10:19:11;;;;;;;;;20.20;19.40;;;;;28.47;49.77;99872.41;5096024;28;8850;-60
2023/06/08 10:21:39;;;;;;;;;22.60;22.00;;;;;28.78;49.64;99877.50;5096010;28;8834;-60
2023/06/08 10:24:08;;;;;;;;;17.20;16.80;;;;;29.00;49.09;99864.84;5095232;28;8922;-60
2023/06/08 10:26:37;;;;;;;;;21.20;21.00;;;;;29.24;48.94;99865.59;5096184;28;8841;-58
2023/06/08 10:29:05;;;;;;;;;21.60;21.00;;;;;29.56;48.31;99862.16;5095936;28;8876;-60
2023/06/08 10:31:49;;;;;;;;;21.60;20.00;;;;;29.91;48.18;99856.47;5095282;28;8841;-58
2023/06/08 10:34:17;;;;;;;;;20.20;19.80;;;;;30.16;47.67;99863.25;5095810;28;8854;-59
2023/06/08 10:36:45;;;;;;;;;21.00;21.00;;;;;30.35;47.85;99855.56;5095946;28;8834;-58
2023/06/08 10:39:14;;;;;;;;;19.80;19.00;;;;;30.55;47.36;99861.38;5096018;28;8974;-58
2023/06/08 10:41:42;;;;;;;;;21.60;21.40;;;;;30.76;46.56;99855.94;5096412;28;8846;-60
2023/06/08 10:44:10;;;;;;;;;15.00;12.80;;;;;31.01;46.41;99853.50;5096961;28;8838;-61
2023/06/08 10:46:38;;;;;;;;;25.40;24.00;;;;;31.05;46.48;99855.50;5096153;28;8845;-60
2023/06/08 10:49:06;;;;;;;;;23.60;21.60;;;;;31.15;46.38;99854.81;5095520;28;8903;-61
2023/06/08 10:51:34;;;;;;;;;20.80;19.40;;;;;31.33;46.46;99844.31;5096587;28;8829;-59
2023/06/08 10:54:06;;;;;;;;;16.80;16.80;;;;;31.62;46.06;99844.88;5096637;28;8822;-60
2023/06/08 10:56:34;;;;;;;;;21.00;21.00;;;;;31.73;46.10;99841.19;5096421;28;8968;-61
2023/06/08 10:59:01;;;;;;;;;22.40;21.60;;;;;31.77;45.17;99832.13;5095393;28;8829;-60
2023/06/08 11:01:30;;;;;;;;;24.40;22.40;;;;;31.81;45.59;99832.44;5095926;28;8841;-61
2023/06/08 11:03:58;;;;;;;;;23.40;21.20;;;;;31.97;45.31;99837.84;5095994;28;8884;-58
2023/06/08 11:06:29;;;;;;;;;22.00;20.60;;;;;32.11;45.03;99841.78;5096160;28;8822;-60
2023/06/08 11:08:57;;;;;;;;;21.80;19.20;;;;;32.19;44.44;99834.97;5095486;28;8838;-60
2023/06/08 11:11:26;;;;;;;;;21.20;20.00;;;;;32.30;44.69;99836.72;5095981;28;8910;-60
2023/06/08 11:13:54;;;;;;;;;19.60;19.60;;;;;32.37;44.35;99838.16;5095736;28;9596;-60
2023/06/08 11:16:22;;;;;;;;;21.20;20.80;;;;;32.51;44.12;99821.97;5095772;28;8845;-61
2023/06/08 11:18:51;;;;;;;;;18.60;18.00;;;;;32.63;44.07;99836.41;5095422;28;8895;-59
2023/06/08 11:21:19;;;;;;;;;19.60;18.20;;;;;32.82;43.64;99830.19;5096271;28;8844;-60
2023/06/08 11:23:47;;;;;;;;;20.00;19.80;;;;;32.93;43.50;99822.78;5096020;28;8833;-60
2023/06/08 11:26:16;;;;;;;;;18.80;17.80;;;;;32.88;43.57;99822.75;5095852;28;8810;-59
2023/06/08 11:28:44;;;;;;;;;22.40;21.00;;;;;32.73;43.70;99820.75;5094626;28;8826;-60
2023/06/08 11:31:13;;;;;;;;;19.20;19.20;;;;;32.79;43.83;99816.09;5095101;28;8964;-60
2023/06/08 11:33:41;;;;;;;;;20.40;19.60;;;;;32.90;43.48;99815.03;5095122;28;8853;-60